Time;durP1;ratioP1;P1;durP2;ratioP2;P2;SDS_P1;SDS_P2;PMS_P1;PMS_P2;Temp;Humidity;BMP_temperature;BMP_pressure;BME280_temperature;BME280_humidity;BME280_pressure;Samples;Min_cycle;Max_cycle;Signal;HPM_P1;HPM_P2
2024/01/22 00:00:51;;;;;;;2.03;1.13;;;;;;;;;;5037866;28;20022;-78
2024/01/22 00:03:17;;;;;;;2.00;1.17;;;;;;;;;;5036437;28;20017;-79
2024/01/22 00:05:43;;;;;;;2.88;0.95;;;;;;;;;;5032033;28;20037;-79
2024/01/22 00:08:11;;;;;;;2.38;1.10;;;;;;;;;;5046078;28;20032;-79
2024/01/22 00:10:37;;;;;;;1.48;1.00;;;;;;;;;;5045670;28;20033;-77
2024/01/22 00:13:07;;;;;;;1.70;1.00;;;;;;;;;;5033128;28;20034;-78
2024/01/22 00:15:33;;;;;;;1.40;1.02;;;;;;;;;;5044569;28;20121;-77
2024/01/22 00:18:01;;;;;;;1.08;0.82;;;;;;;;;;5040090;28;20030;-78
2024/01/22 00:20:27;;;;;;;2.35;1.30;;;;;;;;;;5055485;28;20026;-78
2024/01/22 00:22:53;;;;;;;1.80;1.02;;;;;;;;;;5039639;28;20022;-78
2024/01/22 00:25:19;;;;;;;1.75;1.20;;;;;;;;;;5053807;28;20042;-77
2024/01/22 00:27:50;;;;;;;1.92;1.40;;;;;;;;;;5029221;28;20133;-78
2024/01/22 00:30:19;;;;;;;1.48;1.15;;;;;;;;;;5050032;28;20096;-79
2024/01/22 00:32:45;;;;;;;2.42;1.25;;;;;;;;;;5043135;28;20136;-79
2024/01/22 00:35:11;;;;;;;1.63;0.98;;;;;;;;;;5044035;28;20172;-78
2024/01/22 00:37:38;;;;;;;1.88;1.15;;;;;;;;;;5053459;28;20088;-78
2024/01/22 00:40:04;;;;;;;1.73;1.10;;;;;;;;;;5045862;28;20054;-79
2024/01/22 00:42:30;;;;;;;2.10;1.40;;;;;;;;;;5054069;28;20030;-79
2024/01/22 00:44:56;;;;;;;1.88;1.10;;;;;;;;;;5052411;28;20109;-81
2024/01/22 00:47:22;;;;;;;2.28;0.95;;;;;;;;;;5051339;28;20025;-79
2024/01/22 00:49:49;;;;;;;2.83;1.30;;;;;;;;;;5046961;28;20037;-78
2024/01/22 00:52:18;;;;;;;2.70;1.20;;;;;;;;;;5047708;28;20041;-79
2024/01/22 00:54:46;;;;;;;2.92;1.17;;;;;;;;;;5049629;28;20120;-78
2024/01/22 00:57:12;;;;;;;2.67;1.13;;;;;;;;;;5032131;28;20033;-78
2024/01/22 00:59:38;;;;;;;2.55;1.08;;;;;;;;;;5037773;28;20029;-78
2024/01/22 01:02:06;;;;;;;2.00;1.10;;;;;;;;;;5040189;28;20104;-78
2024/01/22 01:04:32;;;;;;;2.05;0.95;;;;;;;;;;5034212;28;20097;-78
2024/01/22 01:06:58;;;;;;;2.40;1.08;;;;;;;;;;5036222;28;20144;-78
2024/01/22 01:09:24;;;;;;;1.75;0.77;;;;;;;;;;5024046;28;20025;-77
2024/01/22 01:11:50;;;;;;;1.50;1.00;;;;;;;;;;5032426;28;20080;-78
2024/01/22 01:14:18;;;;;;;0.82;0.82;;;;;;;;;;5034000;28;20428;-78
2024/01/22 01:16:44;;;;;;;1.95;1.08;;;;;;;;;;5035634;28;20037;-78
2024/01/22 01:19:10;;;;;;;1.98;0.95;;;;;;;;;;5019876;28;20034;-79
2024/01/22 01:21:40;;;;;;;1.25;1.08;;;;;;;;;;5031340;28;20026;-78
2024/01/22 01:24:06;;;;;;;1.52;0.77;;;;;;;;;;5041802;28;20026;-77
2024/01/22 01:26:32;;;;;;;1.15;0.93;;;;;;;;;;5035753;28;20069;-77
2024/01/22 01:28:58;;;;;;;2.42;0.73;;;;;;;;;;5034390;28;20045;-78
2024/01/22 01:31:28;;;;;;;1.15;0.88;;;;;;;;;;5035368;28;20040;-78
2024/01/22 01:33:54;;;;;;;1.38;0.80;;;;;;;;;;5034623;28;20033;-78
2024/01/22 01:36:20;;;;;;;1.48;0.90;;;;;;;;;;5035048;28;20025;-78
2024/01/22 01:38:47;;;;;;;1.85;1.00;;;;;;;;;;5031243;28;20384;-80
2024/01/22 01:41:13;;;;;;;2.30;0.98;;;;;;;;;;5032763;28;20240;-79
2024/01/22 01:43:39;;;;;;;1.13;0.60;;;;;;;;;;5033083;28;20084;-79
2024/01/22 01:46:05;;;;;;;1.73;1.00;;;;;;;;;;5041601;28;20464;-77
2024/01/22 01:48:33;;;;;;;1.85;0.60;;;;;;;;;;5029790;28;20046;-78
2024/01/22 01:51:00;;;;;;;1.73;0.95;;;;;;;;;;5038329;28;20033;-78
2024/01/22 01:53:27;;;;;;;3.08;1.23;;;;;;;;;;5039451;28;20077;-78
2024/01/22 01:55:54;;;;;;;3.78;1.20;;;;;;;;;;5042149;28;20037;-77
2024/01/22 01:58:20;;;;;;;3.15;2.03;;;;;;;;;;5039858;28;20140;-77
2024/01/22 02:00:49;;;;;;;3.83;1.70;;;;;;;;;;5040781;28;20362;-78
2024/01/22 02:03:15;;;;;;;5.07;1.70;;;;;;;;;;5030304;28;20032;-77
2024/01/22 02:05:41;;;;;;;3.15;1.73;;;;;;;;;;5039938;28;20087;-76
2024/01/22 02:08:07;;;;;;;2.60;1.10;;;;;;;;;;5035217;28;20055;-77
2024/01/22 02:10:33;;;;;;;2.10;1.52;;;;;;;;;;5037763;28;20029;-77
2024/01/22 02:13:01;;;;;;;2.33;1.30;;;;;;;;;;5029961;28;20033;-77
2024/01/22 02:15:29;;;;;;;2.53;1.42;;;;;;;;;;5035739;28;20086;-77
2024/01/22 02:17:59;;;;;;;2.50;1.05;;;;;;;;;;5036931;28;20026;-77
2024/01/22 02:20:25;;;;;;;2.28;1.15;;;;;;;;;;5037611;28;20065;-78
2024/01/22 02:22:51;;;;;;;2.50;1.17;;;;;;;;;;5036788;28;20030;-77
2024/01/22 02:25:18;;;;;;;1.73;1.17;;;;;;;;;;5028092;28;20067;-77
2024/01/22 02:27:44;;;;;;;3.17;1.33;;;;;;;;;;5037730;28;20037;-77
2024/01/22 02:30:10;;;;;;;1.98;0.90;;;;;;;;;;5038581;28;20033;-78
2024/01/22 02:32:37;;;;;;;2.35;1.10;;;;;;;;;;5038747;28;20025;-78
2024/01/22 02:35:03;;;;;;;2.78;1.42;;;;;;;;;;5031199;28;20396;-78
2024/01/22 02:37:29;;;;;;;1.85;0.73;;;;;;;;;;5037296;28;20032;-77
2024/01/22 02:39:55;;;;;;;1.67;0.98;;;;;;;;;;5036900;28;20097;-77
2024/01/22 02:42:21;;;;;;;2.13;1.05;;;;;;;;;;5024581;28;20029;-78
2024/01/22 02:44:47;;;;;;;1.60;0.98;;;;;;;;;;5035670;28;20029;-79
2024/01/22 02:47:13;;;;;;;1.13;0.80;;;;;;;;;;5034336;28;20048;-78
2024/01/22 02:49:39;;;;;;;1.52;0.93;;;;;;;;;;5032482;28;20041;-78
2024/01/22 02:52:05;;;;;;;1.73;1.10;;;;;;;;;;5037341;28;20052;-78
2024/01/22 02:54:31;;;;;;;1.58;0.90;;;;;;;;;;5034504;28;20071;-78
2024/01/22 02:56:58;;;;;;;2.25;0.93;;;;;;;;;;5033208;28;20040;-77
2024/01/22 02:59:24;;;;;;;1.92;0.93;;;;;;;;;;5026183;28;20469;-77
2024/01/22 03:01:50;;;;;;;2.30;0.95;;;;;;;;;;5032948;28;20036;-78
2024/01/22 03:04:16;;;;;;;1.17;0.73;;;;;;;;;;5037737;28;20022;-78
2024/01/22 03:06:43;;;;;;;1.80;0.75;;;;;;;;;;5028255;28;20120;-77
2024/01/22 03:09:09;;;;;;;1.58;0.80;;;;;;;;;;5036312;28;20072;-78
2024/01/22 03:11:36;;;;;;;1.45;0.50;;;;;;;;;;5030065;28;20030;-79
2024/01/22 03:14:02;;;;;;;1.27;0.73;;;;;;;;;;5036623;28;20487;-78
2024/01/22 03:16:28;;;;;;;1.27;0.93;;;;;;;;;;5030608;28;20491;-78
2024/01/22 03:18:54;;;;;;;0.88;0.70;;;;;;;;;;5037653;28;20040;-79
2024/01/22 03:21:20;;;;;;;1.30;0.80;;;;;;;;;;5032765;28;20025;-78
2024/01/22 03:23:46;;;;;;;1.15;0.45;;;;;;;;;;5040357;28;20082;-78
2024/01/22 03:26:23;;;;;;;1.45;0.93;;;;;;;;;;5037714;28;20034;-78
2024/01/22 03:28:49;;;;;;;1.08;0.70;;;;;;;;;;5036868;28;20112;-78
2024/01/22 03:31:22;;;;;;;1.25;0.55;;;;;;;;;;5024079;28;20049;-77
2024/01/22 03:33:48;;;;;;;0.52;0.50;;;;;;;;;;5035623;28;20041;-78
2024/01/22 03:36:15;;;;;;;1.35;0.70;;;;;;;;;;5035990;28;20037;-77
2024/01/22 03:38:41;;;;;;;0.90;0.50;;;;;;;;;;5021489;28;20033;-78
2024/01/22 03:41:07;;;;;;;0.40;0.30;;;;;;;;;;5031669;28;20025;-77
2024/01/22 03:43:33;;;;;;;1.30;0.55;;;;;;;;;;5045232;28;20026;-78
2024/01/22 03:45:59;;;;;;;0.40;0.40;;;;;;;;;;5031501;28;20080;-78
2024/01/22 03:48:25;;;;;;;1.35;1.10;;;;;;;;;;5024618;28;20132;-77
2024/01/22 03:50:53;;;;;;;0.63;0.50;;;;;;;;;;5038864;28;20026;-78
2024/01/22 03:53:19;;;;;;;1.05;0.43;;;;;;;;;;5041437;28;20103;-78
2024/01/22 03:55:45;;;;;;;0.95;0.35;;;;;;;;;;5036590;28;20645;-77
2024/01/22 03:58:11;;;;;;;0.35;0.35;;;;;;;;;;5037406;28;20061;-77
2024/01/22 04:00:38;;;;;;;0.40;0.40;;;;;;;;;;5036407;28;20052;-78
2024/01/22 04:03:04;;;;;;;0.77;0.40;;;;;;;;;;5035126;28;20496;-78
2024/01/22 04:05:30;;;;;;;1.65;0.47;;;;;;;;;;5032205;28;20030;-77
2024/01/22 04:08:00;;;;;;;0.93;0.50;;;;;;;;;;5030659;28;20030;-78
2024/01/22 04:10:26;;;;;;;0.80;0.50;;;;;;;;;;5035870;28;20040;-78
2024/01/22 04:12:55;;;;;;;0.50;0.50;;;;;;;;;;5038029;28;20033;-78
2024/01/22 04:15:21;;;;;;;1.98;0.70;;;;;;;;;;5040585;28;20029;-78
2024/01/22 04:17:47;;;;;;;1.38;0.50;;;;;;;;;;5032165;28;20030;-78
2024/01/22 04:20:13;;;;;;;1.13;0.70;;;;;;;;;;5037982;28;20029;-78
2024/01/22 04:22:41;;;;;;;1.55;0.60;;;;;;;;;;5040131;28;20083;-78
2024/01/22 04:25:07;;;;;;;0.88;0.50;;;;;;;;;;5038268;28;20045;-79
2024/01/22 04:27:34;;;;;;;1.70;0.43;;;;;;;;;;5035063;28;20033;-79
2024/01/22 04:30:00;;;;;;;1.60;0.55;;;;;;;;;;5041246;28;20049;-79
2024/01/22 04:32:26;;;;;;;0.38;0.30;;;;;;;;;;5038009;28;20408;-79
2024/01/22 04:34:52;;;;;;;0.95;0.52;;;;;;;;;;5044990;28;20063;-78
2024/01/22 04:37:21;;;;;;;0.45;0.30;;;;;;;;;;5051301;28;20105;-78
2024/01/22 04:39:47;;;;;;;2.05;0.73;;;;;;;;;;5042347;28;20030;-79
2024/01/22 04:42:18;;;;;;;0.70;0.20;;;;;;;;;;5020718;28;20021;-77
2024/01/22 04:44:44;;;;;;;0.68;0.32;;;;;;;;;;5034352;28;20464;-80
2024/01/22 04:47:10;;;;;;;0.77;0.40;;;;;;;;;;5034916;28;20360;-77
2024/01/22 04:49:37;;;;;;;0.63;0.40;;;;;;;;;;5019775;28;20098;-78
2024/01/22 04:52:03;;;;;;;1.15;0.38;;;;;;;;;;5030472;28;20067;-79
2024/01/22 04:54:29;;;;;;;0.57;0.40;;;;;;;;;;5038747;28;20029;-78
2024/01/22 04:56:55;;;;;;;0.63;0.47;;;;;;;;;;5029330;28;20033;-78
2024/01/22 04:59:21;;;;;;;1.65;0.57;;;;;;;;;;5026749;28;20029;-79
2024/01/22 05:01:47;;;;;;;2.08;0.40;;;;;;;;;;5035906;28;20022;-80
2024/01/22 05:04:29;;;;;;;0.43;0.40;;;;;;;;;;5041971;28;20041;-81
2024/01/22 05:06:55;;;;;;;0.95;0.50;;;;;;;;;;5036880;28;20045;-80
2024/01/22 05:09:22;;;;;;;0.47;0.40;;;;;;;;;;5041516;28;20060;-79
2024/01/22 05:11:50;;;;;;;0.52;0.30;;;;;;;;;;5037820;28;20064;-80
2024/01/22 05:14:16;;;;;;;1.60;0.55;;;;;;;;;;5038825;28;20026;-80
2024/01/22 05:16:42;;;;;;;0.50;0.40;;;;;;;;;;5036313;28;20037;-81
2024/01/22 05:19:08;;;;;;;0.30;0.30;;;;;;;;;;5032153;28;20026;-80
2024/01/22 05:21:36;;;;;;;0.35;0.20;;;;;;;;;;5049827;28;20044;-80
2024/01/22 05:24:02;;;;;;;0.38;0.30;;;;;;;;;;5043669;28;20022;-80
2024/01/22 05:26:28;;;;;;;0.77;0.30;;;;;;;;;;5037554;28;20077;-80
2024/01/22 05:28:55;;;;;;;0.30;0.30;;;;;;;;;;5047012;28;20022;-80
2024/01/22 05:31:21;;;;;;;0.57;0.30;;;;;;;;;;5058188;28;20057;-80
2024/01/22 05:33:47;;;;;;;0.70;0.30;;;;;;;;;;5060432;28;20052;-79
2024/01/22 05:36:13;;;;;;;0.17;0.17;;;;;;;;;;5054680;28;20045;-79
2024/01/22 05:38:41;;;;;;;0.43;0.10;;;;;;;;;;5045905;28;20052;-80
2024/01/22 05:41:08;;;;;;;0.70;0.30;;;;;;;;;;5047270;28;20702;-79
2024/01/22 05:43:35;;;;;;;0.68;0.30;;;;;;;;;;5049462;28;20113;-79
2024/01/22 05:46:02;;;;;;;0.35;0.20;;;;;;;;;;5046550;28;20026;-78
2024/01/22 05:48:28;;;;;;;0.70;0.40;;;;;;;;;;5039440;28;20022;-79
2024/01/22 05:50:54;;;;;;;0.60;0.20;;;;;;;;;;5056524;28;20048;-80
2024/01/22 05:53:22;;;;;;;0.30;0.10;;;;;;;;;;5035269;28;20040;-79
2024/01/22 05:56:10;;;;;;;1.73;0.25;;;;;;;;;;5041336;28;20111;-78
2024/01/22 05:58:36;;;;;;;0.10;0.10;;;;;;;;;;5045461;28;20078;-79
2024/01/22 06:01:02;;;;;;;0.40;0.25;;;;;;;;;;5059486;28;20025;-80
2024/01/22 06:03:29;;;;;;;0.40;0.30;;;;;;;;;;5054604;28;20068;-78
2024/01/22 06:05:55;;;;;;;0.80;0.20;;;;;;;;;;5022780;28;20037;-80
2024/01/22 06:08:22;;;;;;;0.22;0.20;;;;;;;;;;5040295;28;20052;-79
2024/01/22 06:10:54;;;;;;;0.10;0.10;;;;;;;;;;5043258;28;20029;-79
2024/01/22 06:13:20;;;;;;;0.40;0.25;;;;;;;;;;5028999;28;20076;-80
2024/01/22 06:15:46;;;;;;;1.38;0.52;;;;;;;;;;5049834;28;20022;-78
2024/01/22 06:18:12;;;;;;;0.25;0.10;;;;;;;;;;5046272;28;20041;-77
2024/01/22 06:20:38;;;;;;;0.57;0.20;;;;;;;;;;5054511;28;20033;-77
2024/01/22 06:23:04;;;;;;;0.45;0.20;;;;;;;;;;5054960;28;20021;-79
2024/01/22 06:25:30;;;;;;;0.47;0.45;;;;;;;;;;5048878;28;20036;-79
2024/01/22 06:27:56;;;;;;;0.73;0.30;;;;;;;;;;5043253;28;20017;-79
2024/01/22 06:30:23;;;;;;;1.75;0.20;;;;;;;;;;5047559;28;20113;-77
2024/01/22 06:32:49;;;;;;;0.50;0.20;;;;;;;;;;5046166;28;20030;-78
2024/01/22 06:35:15;;;;;;;0.22;0.22;;;;;;;;;;5067307;28;20040;-79
2024/01/22 06:37:41;;;;;;;0.35;0.20;;;;;;;;;;5058213;28;20073;-77
2024/01/22 06:40:08;;;;;;;0.65;0.30;;;;;;;;;;5040935;28;20029;-80
2024/01/22 06:42:34;;;;;;;0.55;0.20;;;;;;;;;;5041540;28;20048;-79
2024/01/22 06:45:05;;;;;;;0.68;0.20;;;;;;;;;;5066174;28;20025;-79
2024/01/22 06:47:34;;;;;;;1.60;0.40;;;;;;;;;;5058800;28;20032;-80
2024/01/22 06:50:15;;;;;;;1.48;0.52;;;;;;;;;;5052970;28;20060;-81
2024/01/22 06:52:43;;;;;;;0.63;0.20;;;;;;;;;;5051881;28;20052;-77
2024/01/22 06:55:09;;;;;;;0.90;0.30;;;;;;;;;;5041574;28;20006;-78
2024/01/22 06:57:35;;;;;;;0.45;0.40;;;;;;;;;;5037460;28;20030;-78
2024/01/22 07:00:07;;;;;;;0.40;0.40;;;;;;;;;;5035197;28;20084;-76
2024/01/22 07:02:33;;;;;;;0.82;0.30;;;;;;;;;;5044712;28;20021;-78
2024/01/22 07:04:59;;;;;;;0.80;0.43;;;;;;;;;;5039831;28;20085;-79
2024/01/22 07:07:26;;;;;;;3.40;0.50;;;;;;;;;;5041160;28;20057;-79
2024/01/22 07:09:52;;;;;;;2.85;0.50;;;;;;;;;;5046989;28;20046;-78
2024/01/22 07:12:19;;;;;;;1.20;0.63;;;;;;;;;;5045258;28;20029;-77
2024/01/22 07:14:46;;;;;;;1.00;0.55;;;;;;;;;;5033373;28;20089;-78
2024/01/22 07:17:15;;;;;;;0.95;0.50;;;;;;;;;;5032069;28;20026;-77
2024/01/22 07:19:41;;;;;;;1.13;0.35;;;;;;;;;;5034534;28;20041;-78
2024/01/22 07:22:07;;;;;;;0.75;0.40;;;;;;;;;;5033675;28;20013;-78
2024/01/22 07:24:34;;;;;;;2.05;0.68;;;;;;;;;;5047496;28;20164;-78
2024/01/22 07:27:00;;;;;;;0.93;0.60;;;;;;;;;;5038851;28;20046;-78
2024/01/22 07:29:26;;;;;;;1.08;0.88;;;;;;;;;;5040155;28;20030;-77
2024/01/22 07:31:52;;;;;;;1.52;0.80;;;;;;;;;;5053528;28;20033;-79
2024/01/22 07:34:19;;;;;;;0.80;0.70;;;;;;;;;;5054237;28;20051;-79
2024/01/22 07:36:45;;;;;;;1.00;0.50;;;;;;;;;;5050312;28;20014;-78
2024/01/22 07:39:11;;;;;;;0.98;0.68;;;;;;;;;;5044550;28;20042;-78
2024/01/22 07:41:40;;;;;;;0.93;0.63;;;;;;;;;;5046780;28;20025;-79
2024/01/22 07:44:06;;;;;;;2.58;0.93;;;;;;;;;;5025087;28;20080;-78
2024/01/22 07:46:33;;;;;;;1.48;0.70;;;;;;;;;;5027550;28;20112;-78
2024/01/22 07:49:01;;;;;;;1.90;0.80;;;;;;;;;;5040106;28;20392;-78
2024/01/22 07:51:29;;;;;;;1.60;0.60;;;;;;;;;;5037455;28;20117;-78
2024/01/22 07:53:55;;;;;;;3.03;0.82;;;;;;;;;;5025523;28;20084;-77
2024/01/22 07:56:21;;;;;;;2.95;0.85;;;;;;;;;;5025126;28;20022;-79
2024/01/22 07:58:47;;;;;;;1.05;0.70;;;;;;;;;;5026779;28;20052;-79
2024/01/22 08:01:15;;;;;;;0.60;0.60;;;;;;;;;;5031219;28;20025;-78
2024/01/22 08:03:41;;;;;;;1.17;1.00;;;;;;;;;;5042770;28;20017;-78
2024/01/22 08:06:08;;;;;;;2.03;0.68;;;;;;;;;;5041519;28;20027;-77
2024/01/22 08:08:34;;;;;;;1.00;0.70;;;;;;;;;;5031829;28;20021;-80
2024/01/22 08:11:00;;;;;;;0.95;0.57;;;;;;;;;;5034127;28;20026;-78
2024/01/22 08:13:26;;;;;;;1.65;0.60;;;;;;;;;;5033976;28;20463;-78
2024/01/22 08:15:52;;;;;;;1.05;0.68;;;;;;;;;;5021254;28;20069;-78
2024/01/22 08:18:19;;;;;;;2.15;0.90;;;;;;;;;;5018957;28;20014;-79
2024/01/22 08:20:45;;;;;;;2.17;0.85;;;;;;;;;;5021242;28;20074;-78
2024/01/22 08:23:11;;;;;;;1.92;0.50;;;;;;;;;;5021309;28;20022;-77
2024/01/22 08:25:38;;;;;;;1.13;0.40;;;;;;;;;;5029003;28;20076;-78
2024/01/22 08:28:04;;;;;;;3.75;1.35;;;;;;;;;;5027609;28;20053;-78
2024/01/22 08:30:30;;;;;;;2.67;1.13;;;;;;;;;;5034012;28;20444;-78
2024/01/22 08:32:56;;;;;;;2.47;1.33;;;;;;;;;;5027275;28;20541;-78
2024/01/22 08:35:23;;;;;;;3.85;1.15;;;;;;;;;;5021406;28;20121;-78
2024/01/22 08:37:52;;;;;;;2.10;1.02;;;;;;;;;;5020614;28;20018;-79
2024/01/22 08:40:21;;;;;;;2.28;1.25;;;;;;;;;;5039083;28;20026;-78
2024/01/22 08:42:53;;;;;;;0.95;0.80;;;;;;;;;;5027757;28;20028;-79
2024/01/22 08:45:21;;;;;;;1.70;0.77;;;;;;;;;;5038347;28;20021;-80
2024/01/22 08:47:49;;;;;;;1.13;0.82;;;;;;;;;;5034935;28;20034;-79
2024/01/22 08:50:18;;;;;;;1.45;0.73;;;;;;;;;;5021666;28;20026;-78
2024/01/22 08:52:46;;;;;;;2.17;1.00;;;;;;;;;;5022625;28;20030;-78
2024/01/22 08:55:12;;;;;;;1.70;0.90;;;;;;;;;;5025913;28;20073;-78
2024/01/22 08:57:39;;;;;;;1.85;0.77;;;;;;;;;;5034694;28;20070;-81
2024/01/22 09:00:10;;;;;;;1.60;0.80;;;;;;;;;;5042203;28;20017;-79
2024/01/22 09:02:36;;;;;;;1.63;0.95;;;;;;;;;;5043364;28;20050;-80
2024/01/22 09:05:03;;;;;;;4.13;1.35;;;;;;;;;;5032898;28;20030;-79
2024/01/22 09:07:29;;;;;;;2.13;0.85;;;;;;;;;;5028398;28;20432;-79
2024/01/22 09:09:56;;;;;;;2.67;0.80;;;;;;;;;;5044226;28;20056;-80
2024/01/22 09:12:22;;;;;;;3.25;0.90;;;;;;;;;;5036425;28;20106;-80
2024/01/22 09:14:48;;;;;;;0.68;0.47;;;;;;;;;;5043056;28;20030;-80
2024/01/22 09:17:15;;;;;;;2.15;0.95;;;;;;;;;;5036331;28;20358;-79
2024/01/22 09:19:41;;;;;;;1.02;0.70;;;;;;;;;;5039245;28;20033;-80
2024/01/22 09:22:08;;;;;;;0.82;0.70;;;;;;;;;;5045500;28;20484;-79
2024/01/22 09:24:34;;;;;;;1.38;0.63;;;;;;;;;;5041029;28;20026;-79
2024/01/22 09:27:00;;;;;;;1.98;0.68;;;;;;;;;;5044611;28;20027;-80
2024/01/22 09:29:26;;;;;;;0.60;0.60;;;;;;;;;;5036505;28;20112;-81
2024/01/22 09:31:53;;;;;;;0.73;0.70;;;;;;;;;;5042952;28;20029;-79
2024/01/22 09:34:20;;;;;;;0.38;0.38;;;;;;;;;;5045758;28;20033;-80
2024/01/22 09:36:46;;;;;;;1.35;0.73;;;;;;;;;;5031662;28;20029;-81
2024/01/22 09:39:13;;;;;;;0.98;0.63;;;;;;;;;;5031623;28;20082;-80
2024/01/22 09:41:40;;;;;;;0.80;0.60;;;;;;;;;;5033238;28;20068;-80
2024/01/22 09:44:13;;;;;;;0.50;0.40;;;;;;;;;;5034290;28;20084;-81
2024/01/22 09:46:39;;;;;;;2.15;0.85;;;;;;;;;;5035726;28;20048;-80
2024/01/22 09:49:05;;;;;;;0.57;0.45;;;;;;;;;;5039872;28;20029;-80
2024/01/22 09:51:36;;;;;;;1.00;0.85;;;;;;;;;;5021109;28;20022;-80
2024/01/22 09:54:08;;;;;;;2.42;0.93;;;;;;;;;;5030964;28;20161;-81
2024/01/22 09:56:35;;;;;;;2.13;0.80;;;;;;;;;;5025678;28;20022;-81
2024/01/22 09:59:06;;;;;;;1.23;0.60;;;;;;;;;;5020627;28;20038;-81
2024/01/22 10:01:33;;;;;;;0.73;0.50;;;;;;;;;;5035883;28;20085;-81
2024/01/22 10:03:59;;;;;;;1.48;0.52;;;;;;;;;;5035414;28;20033;-81
2024/01/22 10:06:28;;;;;;;4.13;0.70;;;;;;;;;;5034035;28;20036;-82
2024/01/22 10:08:58;;;;;;;0.65;0.50;;;;;;;;;;5028658;28;20025;-80
2024/01/22 10:11:26;;;;;;;1.00;0.60;;;;;;;;;;5040302;28;20029;-83
2024/01/22 10:13:52;;;;;;;0.65;0.50;;;;;;;;;;5048989;28;20010;-82
2024/01/22 10:16:19;;;;;;;2.30;0.93;;;;;;;;;;5054554;28;20037;-80
2024/01/22 10:19:08;;;;;;;0.82;0.70;;;;;;;;;;5056469;28;20018;-81
2024/01/22 10:21:54;;;;;;;0.77;0.60;;;;;;;;;;5049908;28;20073;-81
2024/01/22 10:24:20;;;;;;;0.88;0.52;;;;;;;;;;5052546;28;20025;-80
2024/01/22 10:26:46;;;;;;;0.93;0.70;;;;;;;;;;5051442;28;20097;-79
2024/01/22 10:29:14;;;;;;;0.85;0.60;;;;;;;;;;5047572;28;20014;-80
2024/01/22 10:31:56;;;;;;;0.60;0.50;;;;;;;;;;5030547;28;20033;-81
2024/01/22 10:34:28;;;;;;;0.82;0.55;;;;;;;;;;5028578;28;20034;-81
2024/01/22 10:37:23;;;;;;;0.85;0.52;;;;;;;;;;5042626;28;20036;-80
2024/01/22 10:40:11;;;;;;;0.98;0.43;;;;;;;;;;5038136;28;20084;-80
2024/01/22 10:42:37;;;;;;;0.50;0.40;;;;;;;;;;5049657;28;20017;-81
2024/01/22 10:45:07;;;;;;;0.60;0.50;;;;;;;;;;5055443;28;20041;-80
2024/01/22 10:47:34;;;;;;;0.82;0.68;;;;;;;;;;5043209;28;20006;-79
2024/01/22 10:50:02;;;;;;;0.55;0.40;;;;;;;;;;5051268;28;20041;-80
2024/01/22 10:52:30;;;;;;;0.60;0.40;;;;;;;;;;5055241;28;20030;-80
2024/01/22 10:54:57;;;;;;;0.52;0.47;;;;;;;;;;5033423;28;20076;-80
2024/01/22 10:57:27;;;;;;;1.48;0.80;;;;;;;;;;5028945;28;20053;-80
2024/01/22 10:59:57;;;;;;;0.82;0.52;;;;;;;;;;5044252;28;20037;-80
2024/01/22 11:02:23;;;;;;;1.20;0.68;;;;;;;;;;5040239;28;20046;-79
2024/01/22 11:05:00;;;;;;;1.27;0.60;;;;;;;;;;5038549;28;20385;-77
2024/01/22 11:07:33;;;;;;;0.80;0.60;;;;;;;;;;5035500;28;20109;-78
2024/01/22 11:10:02;;;;;;;0.80;0.68;;;;;;;;;;5024805;28;20030;-78
2024/01/22 11:12:38;;;;;;;0.40;0.40;;;;;;;;;;5025261;28;20128;-79
2024/01/22 11:15:05;;;;;;;1.52;0.75;;;;;;;;;;5037240;28;20026;-79
2024/01/22 11:17:31;;;;;;;0.57;0.57;;;;;;;;;;5052132;28;20026;-79
2024/01/22 11:20:16;;;;;;;1.58;0.70;;;;;;;;;;5044398;28;20034;-79
2024/01/22 11:22:42;;;;;;;0.60;0.60;;;;;;;;;;5048718;28;20018;-78
2024/01/22 11:25:10;;;;;;;1.27;0.63;;;;;;;;;;5032533;28;20029;-78
2024/01/22 11:27:39;;;;;;;1.15;0.65;;;;;;;;;;5030800;28;20010;-79
2024/01/22 11:30:21;;;;;;;0.95;0.60;;;;;;;;;;5035886;28;20035;-79
2024/01/22 11:32:47;;;;;;;0.50;0.50;;;;;;;;;;5019874;28;20029;-78
2024/01/22 11:35:13;;;;;;;0.63;0.63;;;;;;;;;;5034600;28;20148;-78
2024/01/22 11:37:40;;;;;;;0.45;0.30;;;;;;;;;;5037656;28;20029;-78
2024/01/22 11:40:11;;;;;;;1.65;0.90;;;;;;;;;;5023984;28;20372;-78
2024/01/22 11:42:37;;;;;;;0.30;0.30;;;;;;;;;;5020768;28;20036;-78
2024/01/22 11:45:13;;;;;;;1.08;0.75;;;;;;;;;;5016495;28;20477;-79
2024/01/22 11:47:41;;;;;;;1.05;0.60;;;;;;;;;;5029849;28;20401;-77
2024/01/22 11:50:08;;;;;;;1.48;0.77;;;;;;;;;;5017843;28;20499;-78
2024/01/22 11:52:35;;;;;;;0.52;0.52;;;;;;;;;;5034415;28;20021;-79
2024/01/22 11:55:02;;;;;;;0.75;0.60;;;;;;;;;;5033973;28;20041;-80
2024/01/22 11:57:31;;;;;;;0.88;0.55;;;;;;;;;;5030107;28;20073;-79
2024/01/22 12:00:05;;;;;;;0.60;0.40;;;;;;;;;;5036290;28;20056;-79
2024/01/22 12:02:32;;;;;;;0.73;0.73;;;;;;;;;;5029683;28;20013;-79
2024/01/22 12:05:10;;;;;;;0.93;0.60;;;;;;;;;;5035261;28;20064;-78
2024/01/22 12:07:37;;;;;;;0.47;0.43;;;;;;;;;;5042257;28;20056;-79
2024/01/22 12:10:06;;;;;;;0.50;0.50;;;;;;;;;;5032388;28;20320;-78
2024/01/22 12:12:33;;;;;;;0.85;0.40;;;;;;;;;;5037915;28;20029;-79
2024/01/22 12:14:59;;;;;;;0.55;0.40;;;;;;;;;;5041580;28;20029;-78
2024/01/22 12:17:26;;;;;;;0.40;0.32;;;;;;;;;;5027800;28;20527;-79
2024/01/22 12:19:55;;;;;;;0.98;0.30;;;;;;;;;;5043871;28;20026;-79
2024/01/22 12:22:22;;;;;;;0.30;0.25;;;;;;;;;;5031911;28;20281;-78
2024/01/22 12:25:03;;;;;;;0.60;0.52;;;;;;;;;;5030005;28;20026;-78
2024/01/22 12:27:30;;;;;;;0.30;0.30;;;;;;;;;;5022265;28;20091;-77
2024/01/22 12:30:06;;;;;;;0.50;0.43;;;;;;;;;;5034887;28;20052;-78
2024/01/22 12:32:33;;;;;;;0.60;0.60;;;;;;;;;;5022695;28;20041;-77
2024/01/22 12:35:00;;;;;;;0.32;0.30;;;;;;;;;;5032255;28;20032;-79
2024/01/22 12:37:29;;;;;;;0.57;0.40;;;;;;;;;;5028871;28;20480;-78
2024/01/22 12:40:07;;;;;;;0.45;0.45;;;;;;;;;;5031718;28;20362;-80
2024/01/22 12:42:33;;;;;;;0.30;0.30;;;;;;;;;;5032040;28;20037;-78
2024/01/22 12:45:00;;;;;;;0.45;0.40;;;;;;;;;;5039401;28;20639;-78
2024/01/22 12:47:26;;;;;;;0.75;0.40;;;;;;;;;;5030403;28;20014;-79
2024/01/22 12:49:53;;;;;;;0.30;0.30;;;;;;;;;;5034667;28;20048;-78
2024/01/22 12:52:21;;;;;;;0.43;0.40;;;;;;;;;;5022989;28;20430;-78
2024/01/22 12:54:47;;;;;;;0.38;0.38;;;;;;;;;;5026895;28;20045;-79
2024/01/22 12:57:13;;;;;;;0.52;0.50;;;;;;;;;;5033112;28;20041;-78
2024/01/22 12:59:39;;;;;;;0.77;0.40;;;;;;;;;;5033811;28;20091;-77
2024/01/22 13:02:05;;;;;;;0.77;0.57;;;;;;;;;;5034700;28;20033;-79
2024/01/22 13:04:31;;;;;;;0.30;0.30;;;;;;;;;;5021056;28;20076;-79
2024/01/22 13:06:57;;;;;;;1.35;0.40;;;;;;;;;;5033634;28;20029;-79
2024/01/22 13:09:23;;;;;;;0.38;0.38;;;;;;;;;;5022622;28;20037;-78
2024/01/22 13:11:49;;;;;;;0.52;0.50;;;;;;;;;;5039622;28;20492;-78
2024/01/22 13:14:15;;;;;;;0.60;0.40;;;;;;;;;;5029573;28;20025;-78
2024/01/22 13:16:41;;;;;;;0.85;0.47;;;;;;;;;;5027916;28;20030;-79
2024/01/22 13:19:07;;;;;;;0.50;0.40;;;;;;;;;;5037175;28;20079;-79
2024/01/22 13:21:33;;;;;;;0.22;0.22;;;;;;;;;;5036328;28;20029;-79
2024/01/22 13:24:00;;;;;;;0.80;0.63;;;;;;;;;;5031098;28;20052;-79
2024/01/22 13:26:26;;;;;;;0.40;0.40;;;;;;;;;;5025281;28;20026;-79
2024/01/22 13:28:54;;;;;;;0.60;0.60;;;;;;;;;;5055134;28;20040;-78
2024/01/22 13:31:20;;;;;;;0.65;0.30;;;;;;;;;;5047279;28;20038;-79
2024/01/22 13:33:46;;;;;;;0.50;0.50;;;;;;;;;;5048095;28;20017;-78
2024/01/22 13:36:12;;;;;;;0.70;0.60;;;;;;;;;;5043197;28;20033;-79
2024/01/22 13:38:42;;;;;;;0.45;0.45;;;;;;;;;;5041163;28;20038;-77
2024/01/22 13:41:09;;;;;;;2.30;0.55;;;;;;;;;;5037738;28;20166;-78
2024/01/22 13:43:35;;;;;;;0.75;0.40;;;;;;;;;;5042171;28;20034;-79
2024/01/22 13:46:03;;;;;;;1.02;0.50;;;;;;;;;;5044625;28;20033;-79
2024/01/22 13:48:29;;;;;;;0.93;0.50;;;;;;;;;;5025469;28;20028;-79
2024/01/22 13:50:56;;;;;;;0.85;0.77;;;;;;;;;;5030212;28;20117;-80
2024/01/22 13:53:22;;;;;;;1.40;1.05;;;;;;;;;;5034952;28;20075;-80
2024/01/22 13:55:48;;;;;;;1.13;0.80;;;;;;;;;;5033853;28;20037;-80
2024/01/22 13:58:15;;;;;;;0.82;0.63;;;;;;;;;;5041053;28;20093;-79
2024/01/22 14:00:41;;;;;;;0.60;0.52;;;;;;;;;;5024378;28;20030;-80
2024/01/22 14:03:10;;;;;;;0.63;0.50;;;;;;;;;;5038354;28;20037;-79
2024/01/22 14:05:36;;;;;;;1.52;0.70;;;;;;;;;;5024067;28;20041;-78
2024/01/22 14:08:02;;;;;;;0.70;0.70;;;;;;;;;;5030654;28;20076;-78
2024/01/22 14:10:28;;;;;;;1.88;1.10;;;;;;;;;;5031360;28;20044;-79
2024/01/22 14:12:54;;;;;;;4.95;2.15;;;;;;;;;;5035616;28;20043;-79
2024/01/22 14:15:21;;;;;;;4.43;2.22;;;;;;;;;;5035261;28;20037;-78
2024/01/22 14:17:47;;;;;;;4.80;2.15;;;;;;;;;;5042830;28;20033;-79
2024/01/22 14:20:13;;;;;;;3.53;1.85;;;;;;;;;;5044807;28;20115;-79
2024/01/22 14:22:40;;;;;;;2.03;1.50;;;;;;;;;;5031892;28;20038;-79
2024/01/22 14:25:10;;;;;;;2.85;1.60;;;;;;;;;;5024784;28;20025;-77
2024/01/22 14:27:36;;;;;;;2.65;1.48;;;;;;;;;;5044425;28;20029;-80
2024/01/22 14:30:03;;;;;;;6.72;1.40;;;;;;;;;;5028223;28;20156;-79
2024/01/22 14:32:30;;;;;;;3.13;1.30;;;;;;;;;;5029288;28;20017;-79
2024/01/22 14:34:57;;;;;;;3.15;1.17;;;;;;;;;;5030080;28;20030;-80
2024/01/22 14:37:23;;;;;;;2.83;0.90;;;;;;;;;;5029818;28;20033;-78
2024/01/22 14:39:49;;;;;;;1.45;1.05;;;;;;;;;;5025089;28;20061;-79
2024/01/22 14:42:15;;;;;;;4.30;0.90;;;;;;;;;;5024909;28;20389;-80
2024/01/22 14:44:41;;;;;;;1.05;0.70;;;;;;;;;;5031218;28;20033;-79